createdAt,value
2023-05-06T00:01:52.047Z,2.25
2023-05-06T00:04:18.852Z,2.40
2023-05-06T00:06:45.307Z,2.20
2023-05-06T00:09:11.670Z,2.38
2023-05-06T00:11:38.035Z,2.20
2023-05-06T00:14:04.452Z,2.58
2023-05-06T00:16:30.958Z,2.55
2023-05-06T00:18:57.364Z,2.60
2023-05-06T00:21:23.751Z,2.47
2023-05-06T00:23:50.166Z,2.53
2023-05-06T00:26:16.568Z,2.30
2023-05-06T00:28:42.938Z,2.53
2023-05-06T00:31:09.704Z,2.53
2023-05-06T00:33:36.080Z,2.40
2023-05-06T00:36:02.758Z,3.25
2023-05-06T00:38:29.125Z,2.65
2023-05-06T00:40:55.599Z,2.35
2023-05-06T00:43:22.044Z,2.88
2023-05-06T00:45:48.571Z,2.55
2023-05-06T00:48:16.333Z,2.60
2023-05-06T00:50:42.804Z,2.45
2023-05-06T00:53:10.500Z,1.83
2023-05-06T00:55:37.787Z,1.38
2023-05-06T00:58:04.597Z,1.50
2023-05-06T01:00:31.063Z,1.40
2023-05-06T01:02:57.496Z,1.50
2023-05-06T01:05:26.055Z,1.98
2023-05-06T01:07:58.815Z,2.08
2023-05-06T01:10:25.255Z,2.20
2023-05-06T01:13:01.712Z,2.20
2023-05-06T01:15:31.189Z,2.10
2023-05-06T01:17:58.738Z,2.10
2023-05-06T01:20:25.205Z,2.13
2023-05-06T01:22:51.941Z,2.17
2023-05-06T01:25:20.153Z,2.50
2023-05-06T01:27:46.597Z,2.17
2023-05-06T01:30:13.726Z,2.42
2023-05-06T01:32:58.401Z,2.25
2023-05-06T01:35:35.053Z,1.80
2023-05-06T01:38:31.294Z,2.00
2023-05-06T01:40:57.848Z,2.10
2023-05-06T01:43:26.120Z,2.30
2023-05-06T01:45:54.134Z,2.40
2023-05-06T01:48:25.671Z,2.25
2023-05-06T01:50:52.322Z,2.13
2023-05-06T01:53:21.308Z,2.40
2023-05-06T01:55:48.734Z,2.70
2023-05-06T01:58:15.765Z,2.15
2023-05-06T02:00:42.221Z,2.55
2023-05-06T02:03:08.789Z,2.47
2023-05-06T02:05:35.832Z,2.35
2023-05-06T02:08:02.213Z,1.98
2023-05-06T02:10:33.483Z,3.90
2023-05-06T02:12:59.983Z,1.85
2023-05-06T02:15:26.473Z,2.00
2023-05-06T02:17:52.900Z,2.03
2023-05-06T02:20:19.349Z,1.95
2023-05-06T02:22:45.818Z,1.95
2023-05-06T02:25:12.198Z,2.30
2023-05-06T02:27:38.679Z,2.15
2023-05-06T02:30:06.227Z,2.17
2023-05-06T02:32:32.673Z,2.30
2023-05-06T02:34:59.074Z,2.20
2023-05-06T02:37:25.466Z,1.73
2023-05-06T02:39:51.829Z,1.52
2023-05-06T02:42:18.490Z,1.90
2023-05-06T02:44:44.878Z,2.20
2023-05-06T02:47:11.260Z,1.85
2023-05-06T02:49:37.679Z,1.98
2023-05-06T02:52:04.214Z,2.00
2023-05-06T02:54:30.709Z,1.95
2023-05-06T02:56:57.063Z,2.00
2023-05-06T02:59:23.581Z,2.33
2023-05-06T03:01:49.971Z,2.00
2023-05-06T03:04:16.353Z,2.45
2023-05-06T03:06:42.765Z,2.22
2023-05-06T03:09:09.762Z,2.50
2023-05-06T03:11:36.180Z,1.92
2023-05-06T03:14:02.533Z,2.10
2023-05-06T03:16:28.922Z,1.90
2023-05-06T03:18:57.808Z,1.80
2023-05-06T03:21:24.182Z,1.52
2023-05-06T03:23:50.588Z,1.40
2023-05-06T03:26:16.896Z,1.38
2023-05-06T03:28:46.271Z,1.10
2023-05-06T03:31:12.941Z,1.45
2023-05-06T03:33:39.341Z,1.50
2023-05-06T03:36:06.037Z,1.48
2023-05-06T03:38:32.465Z,1.50
2023-05-06T03:40:58.825Z,1.98
2023-05-06T03:43:25.159Z,1.80
2023-05-06T03:45:51.547Z,2.08
2023-05-06T03:48:17.932Z,2.55
2023-05-06T03:50:47.006Z,2.40
2023-05-06T03:53:13.449Z,2.17
2023-05-06T03:55:39.782Z,2.40
2023-05-06T03:58:06.098Z,2.25
2023-05-06T04:00:32.644Z,2.25
2023-05-06T04:02:59.173Z,2.90
2023-05-06T04:05:25.656Z,3.35
2023-05-06T04:07:54.523Z,2.53
2023-05-06T04:10:21.421Z,2.95
2023-05-06T04:12:47.821Z,2.63
2023-05-06T04:15:16.734Z,2.25
2023-05-06T04:17:43.115Z,2.88
2023-05-06T04:20:11.450Z,2.50
2023-05-06T04:22:38.523Z,2.47
2023-05-06T04:25:05.248Z,2.58
2023-05-06T04:27:32.155Z,2.67
2023-05-06T04:29:58.733Z,2.88
2023-05-06T04:32:28.121Z,2.60
2023-05-06T04:34:54.485Z,2.50
2023-05-06T04:37:21.071Z,2.30
2023-05-06T04:39:48.779Z,2.63
2023-05-06T04:42:16.163Z,2.60
2023-05-06T04:44:42.788Z,1.85
2023-05-06T04:47:09.208Z,1.60
2023-05-06T04:49:35.576Z,1.90
2023-05-06T04:52:01.918Z,1.98
2023-05-06T04:54:28.332Z,2.00
2023-05-06T04:56:57.116Z,2.22
2023-05-06T04:59:23.513Z,2.60
2023-05-06T05:01:49.968Z,2.50
2023-05-06T05:04:16.940Z,2.55
2023-05-06T05:06:43.399Z,2.35
2023-05-06T05:09:10.696Z,2.80
2023-05-06T05:11:38.102Z,2.85
2023-05-06T05:14:04.599Z,2.95
2023-05-06T05:16:31.217Z,2.97
2023-05-06T05:18:57.626Z,3.25
2023-05-06T05:21:24.037Z,3.42
2023-05-06T05:23:50.446Z,3.53
2023-05-06T05:26:19.284Z,2.88
2023-05-06T05:28:48.238Z,2.22
2023-05-06T05:31:14.794Z,2.85
2023-05-06T05:33:41.257Z,2.60
2023-05-06T05:36:08.224Z,2.83
2023-05-06T05:38:34.687Z,2.97
2023-05-06T05:41:01.058Z,3.13
2023-05-06T05:43:27.450Z,2.95
2023-05-06T05:45:53.873Z,2.35
2023-05-06T05:48:22.732Z,2.70
2023-05-06T05:50:51.623Z,2.78
2023-05-06T05:53:17.999Z,2.95
2023-05-06T05:55:44.352Z,2.88
2023-05-06T05:58:11.590Z,3.03
2023-05-06T06:00:38.041Z,3.10
2023-05-06T06:03:04.437Z,3.60
2023-05-06T06:05:30.979Z,3.40
2023-05-06T06:07:58.140Z,2.95
2023-05-06T06:10:24.477Z,2.38
2023-05-06T06:12:50.896Z,2.85
2023-05-06T06:15:17.395Z,2.83
2023-05-06T06:17:44.194Z,2.80
2023-05-06T06:20:12.453Z,2.90
2023-05-06T06:22:38.885Z,2.60
2023-05-06T06:25:05.454Z,3.08
2023-05-06T06:27:34.689Z,2.83
2023-05-06T06:30:01.029Z,3.17
2023-05-06T06:32:27.408Z,2.53
2023-05-06T06:34:53.850Z,3.00
2023-05-06T06:37:20.248Z,2.80
2023-05-06T06:39:46.604Z,3.10
2023-05-06T06:42:13.028Z,2.95
2023-05-06T06:44:39.409Z,2.75
2023-05-06T06:47:05.897Z,3.10
2023-05-06T06:49:32.313Z,3.35
2023-05-06T06:51:58.687Z,3.20
2023-05-06T06:54:27.431Z,3.38
2023-05-06T06:56:54.875Z,3.33
2023-05-06T06:59:21.333Z,6.32
2023-05-06T07:01:47.845Z,2.85
2023-05-06T07:04:16.713Z,5.05
2023-05-06T07:06:43.150Z,3.05
2023-05-06T07:09:09.603Z,2.97
2023-05-06T07:11:38.180Z,3.35
2023-05-06T07:14:04.595Z,3.17
2023-05-06T07:16:31.035Z,3.30
2023-05-06T07:18:57.490Z,3.38
2023-05-06T07:21:23.881Z,3.13
2023-05-06T07:23:50.400Z,3.17
2023-05-06T07:26:16.790Z,4.28
2023-05-06T07:28:43.190Z,3.20
2023-05-06T07:31:09.639Z,3.85
2023-05-06T07:33:36.072Z,3.85
2023-05-06T07:36:02.499Z,3.80
2023-05-06T07:38:28.912Z,4.00
2023-05-06T07:40:55.300Z,3.90
2023-05-06T07:43:22.242Z,4.00
2023-05-06T07:45:51.044Z,3.95
2023-05-06T07:48:19.942Z,4.15
2023-05-06T07:50:46.761Z,4.07
2023-05-06T07:53:13.944Z,3.80
2023-05-06T07:55:42.708Z,3.85
2023-05-06T07:58:11.540Z,3.72
2023-05-06T08:00:38.077Z,2.95
2023-05-06T08:03:04.574Z,3.40
2023-05-06T08:05:31.388Z,3.13
2023-05-06T08:08:02.428Z,2.92
2023-05-06T08:10:28.855Z,2.92
2023-05-06T08:12:55.268Z,3.03
2023-05-06T08:15:21.679Z,2.35
2023-05-06T08:17:53.105Z,2.40
2023-05-06T08:20:19.610Z,2.25
2023-05-06T08:22:45.972Z,2.10
2023-05-06T08:25:12.574Z,2.72
2023-05-06T08:27:39.620Z,2.58
2023-05-06T08:30:08.710Z,2.70
2023-05-06T08:32:35.478Z,2.50
2023-05-06T08:35:02.099Z,3.97
2023-05-06T08:37:30.901Z,3.50
2023-05-06T08:39:58.763Z,3.95
2023-05-06T08:42:26.490Z,3.63
2023-05-06T08:44:55.309Z,3.65
2023-05-06T08:47:22.036Z,3.80
2023-05-06T08:49:48.805Z,3.22
2023-05-06T08:52:17.644Z,3.58
2023-05-06T08:54:45.194Z,3.67
2023-05-06T08:57:12.574Z,3.85
2023-05-06T08:59:40.002Z,3.78
2023-05-06T09:02:08.485Z,3.72
2023-05-06T09:04:35.188Z,3.80
2023-05-06T09:07:01.682Z,3.80
2023-05-06T09:09:28.101Z,4.07
2023-05-06T09:11:57.443Z,4.10
2023-05-06T09:14:24.200Z,4.10
2023-05-06T09:16:52.344Z,3.75
2023-05-06T09:19:21.950Z,3.60
2023-05-06T09:21:49.345Z,3.95
2023-05-06T09:24:16.772Z,3.67
2023-05-06T09:26:43.900Z,3.38
2023-05-06T09:29:10.459Z,3.70
2023-05-06T09:31:40.880Z,3.65
2023-05-06T09:34:07.329Z,3.63
2023-05-06T09:36:33.777Z,3.35
2023-05-06T09:39:00.458Z,3.55
2023-05-06T09:41:26.928Z,3.50
2023-05-06T09:43:54.104Z,3.20
2023-05-06T09:46:24.440Z,3.13
2023-05-06T09:48:51.940Z,2.80
2023-05-06T09:51:18.835Z,2.80
2023-05-06T09:53:45.524Z,3.13
2023-05-06T09:56:12.143Z,2.95
2023-05-06T09:58:38.884Z,2.90
2023-05-06T10:01:06.267Z,2.80
2023-05-06T10:03:33.439Z,3.08
2023-05-06T10:06:04.636Z,3.15
2023-05-06T10:08:32.881Z,2.90
2023-05-06T10:11:02.039Z,3.28
2023-05-06T10:13:28.472Z,3.40
2023-05-06T10:15:55.238Z,3.40
2023-05-06T10:18:24.418Z,3.42
2023-05-06T10:20:53.552Z,3.40
2023-05-06T10:23:43.254Z,3.33
2023-05-06T10:26:11.345Z,2.75
2023-05-06T10:28:40.649Z,2.97
2023-05-06T10:31:16.325Z,2.70
2023-05-06T10:33:46.048Z,2.40
2023-05-06T10:36:21.346Z,2.97
2023-05-06T10:38:54.704Z,2.80
2023-05-06T10:41:22.234Z,2.90
2023-05-06T10:43:56.715Z,2.63
2023-05-06T10:46:24.162Z,2.75
2023-05-06T10:49:06.298Z,2.50
2023-05-06T10:51:33.215Z,2.58
2023-05-06T10:54:06.912Z,2.20
2023-05-06T10:59:07.833Z,1.80
2023-05-06T11:01:38.175Z,2.25
2023-05-06T11:04:05.670Z,4.55
2023-05-06T11:06:39.763Z,2.38
2023-05-06T11:09:06.520Z,3.53
2023-05-06T11:11:53.277Z,2.80
2023-05-06T11:14:34.759Z,2.35
2023-05-06T11:17:02.510Z,2.08
2023-05-06T11:19:30.304Z,1.50
2023-05-06T11:22:00.642Z,1.55
2023-05-06T11:24:31.284Z,1.67
2023-05-06T11:26:59.476Z,1.40
2023-05-06T11:29:26.277Z,3.85
2023-05-06T11:31:55.265Z,1.45
2023-05-06T11:34:28.761Z,1.90
2023-05-06T11:39:22.256Z,1.10
2023-05-06T11:41:48.946Z,1.40
2023-05-06T11:44:24.126Z,1.10
2023-05-06T11:46:51.244Z,1.27
2023-05-06T11:49:17.713Z,1.20
2023-05-06T11:51:46.479Z,1.50
2023-05-06T11:54:15.042Z,1.38
2023-05-06T11:56:43.415Z,1.50
2023-05-06T11:59:09.946Z,1.33
2023-05-06T12:01:36.419Z,1.30
2023-05-06T12:04:03.285Z,1.50
2023-05-06T12:06:36.157Z,1.83
2023-05-06T12:09:04.180Z,1.45
2023-05-06T12:11:31.008Z,1.40
2023-05-06T12:13:59.915Z,1.40
2023-05-06T12:16:27.077Z,1.45
2023-05-06T12:18:54.524Z,1.90
2023-05-06T12:21:24.467Z,1.70
2023-05-06T12:23:52.728Z,1.75
2023-05-06T12:26:19.732Z,1.50
2023-05-06T12:28:46.203Z,1.85
2023-05-06T12:31:26.250Z,1.95
2023-05-06T12:33:53.643Z,1.80
2023-05-06T12:36:22.025Z,1.67
2023-05-06T12:38:53.954Z,1.50
2023-05-06T12:41:22.864Z,1.50
2023-05-06T12:43:49.382Z,1.65
2023-05-06T12:46:16.871Z,1.75
2023-05-06T12:49:12.716Z,1.75
2023-05-06T12:51:39.122Z,1.52
2023-05-06T12:54:25.458Z,1.40
2023-05-06T12:56:54.360Z,1.15
2023-05-06T12:59:20.728Z,1.40
2023-05-06T13:01:47.104Z,1.50
2023-05-06T13:04:13.532Z,1.60
2023-05-06T13:06:39.911Z,10.10
2023-05-06T13:09:06.595Z,1.60
2023-05-06T13:11:32.987Z,1.80
2023-05-06T13:14:01.824Z,2.28
2023-05-06T13:16:31.086Z,1.70
2023-05-06T13:18:59.870Z,1.70
2023-05-06T13:21:27.084Z,1.63
2023-05-06T13:23:55.984Z,1.50
2023-05-06T13:26:24.950Z,1.48
2023-05-06T13:28:51.571Z,1.42
2023-05-06T13:31:18.218Z,1.45
2023-05-06T13:33:44.641Z,1.50
2023-05-06T13:36:11.598Z,1.52
2023-05-06T13:38:38.036Z,1.65
2023-05-06T13:41:06.813Z,1.60
2023-05-06T13:43:33.207Z,1.67
2023-05-06T13:46:02.083Z,1.70
2023-05-06T13:48:31.107Z,1.45
2023-05-06T13:50:57.648Z,1.52
2023-05-06T13:53:24.062Z,1.80
2023-05-06T13:55:50.567Z,1.60
2023-05-06T13:58:17.451Z,1.92
2023-05-06T14:00:49.186Z,1.88
2023-05-06T14:03:18.458Z,4.05
2023-05-06T14:05:44.835Z,1.92
2023-05-06T14:08:11.257Z,1.60
2023-05-06T14:10:37.642Z,1.85
2023-05-06T14:13:06.802Z,1.83
2023-05-06T14:15:33.645Z,1.58
2023-05-06T14:18:00.179Z,1.50
2023-05-06T14:20:26.581Z,1.38
2023-05-06T14:22:53.239Z,1.58
2023-05-06T14:25:19.771Z,1.80
2023-05-06T14:27:46.273Z,1.70
2023-05-06T14:30:13.049Z,1.77
2023-05-06T14:32:39.555Z,1.40
2023-05-06T14:35:06.225Z,1.60
2023-05-06T14:37:32.620Z,1.20
2023-05-06T14:39:59.266Z,1.30
2023-05-06T14:42:28.383Z,1.50
2023-05-06T14:44:54.967Z,1.77
2023-05-06T14:47:21.640Z,1.20
2023-05-06T14:49:50.534Z,3.00
2023-05-06T14:52:19.508Z,4.18
2023-05-06T14:54:45.916Z,1.85
2023-05-06T14:57:12.325Z,1.90
2023-05-06T14:59:38.773Z,2.17
2023-05-06T15:02:09.713Z,1.50
2023-05-06T15:04:36.686Z,1.48
2023-05-06T15:07:05.700Z,1.30
2023-05-06T15:09:39.498Z,1.60
2023-05-06T15:12:09.467Z,1.45
2023-05-06T15:14:38.281Z,1.20
2023-05-06T15:17:04.913Z,1.30
2023-05-06T15:19:31.657Z,1.50
2023-05-06T15:21:58.137Z,1.30
2023-05-06T15:24:24.598Z,1.30
2023-05-06T15:26:51.304Z,1.30
2023-05-06T15:29:20.416Z,1.20
2023-05-06T15:31:46.867Z,1.20
2023-05-06T15:34:13.589Z,1.35
2023-05-06T15:36:42.827Z,1.27
2023-05-06T15:39:09.255Z,1.15
2023-05-06T15:41:38.540Z,1.30
2023-05-06T15:44:06.111Z,0.85
2023-05-06T15:46:33.228Z,1.30
2023-05-06T15:49:17.866Z,1.20
2023-05-06T15:51:46.541Z,1.00
2023-05-06T15:54:16.652Z,1.30
2023-05-06T15:56:43.012Z,1.30
2023-05-06T15:59:12.647Z,1.02
2023-05-06T16:04:10.874Z,1.15
2023-05-06T16:06:37.423Z,1.02
2023-05-06T16:09:03.957Z,1.00
2023-05-06T16:11:33.079Z,1.05
2023-05-06T16:13:59.621Z,1.20
2023-05-06T16:16:26.093Z,1.35
2023-05-06T16:18:52.598Z,0.90
2023-05-06T16:21:19.004Z,0.90
2023-05-06T16:23:46.048Z,1.00
2023-05-06T16:26:13.392Z,1.20
2023-05-06T16:28:40.337Z,1.08
2023-05-06T16:31:07.133Z,1.20
2023-05-06T16:33:33.608Z,0.80
2023-05-06T16:36:00.121Z,1.10
2023-05-06T16:38:28.991Z,1.13
2023-05-06T16:40:55.548Z,1.27
2023-05-06T16:43:21.989Z,1.52
2023-05-06T16:45:50.915Z,1.15
2023-05-06T16:48:19.763Z,1.20
2023-05-06T16:50:46.328Z,1.10
2023-05-06T16:53:12.845Z,1.42
2023-05-06T16:55:39.219Z,1.20
2023-05-06T16:58:05.692Z,1.00
2023-05-06T17:00:32.152Z,1.00
2023-05-06T17:03:03.843Z,1.50
2023-05-06T17:05:35.720Z,1.45
2023-05-06T17:08:03.573Z,1.20
2023-05-06T17:10:30.100Z,1.20
2023-05-06T17:12:57.189Z,1.30
2023-05-06T17:15:26.635Z,1.20
2023-05-06T17:17:55.518Z,1.20
2023-05-06T17:20:25.235Z,1.30
2023-05-06T17:22:51.713Z,1.52
2023-05-06T17:25:21.041Z,1.25
2023-05-06T17:27:47.414Z,1.23
2023-05-06T17:30:15.001Z,1.35
2023-05-06T17:32:42.075Z,1.13
2023-05-06T17:35:11.622Z,1.20
2023-05-06T17:37:38.654Z,1.30
2023-05-06T17:40:06.908Z,1.40
2023-05-06T17:42:34.201Z,1.40
2023-05-06T17:45:00.752Z,1.42
2023-05-06T17:47:29.961Z,1.40
2023-05-06T17:49:56.823Z,1.50
2023-05-06T17:52:26.760Z,1.58
2023-05-06T17:55:10.802Z,1.40
2023-05-06T17:57:40.588Z,1.50
2023-05-06T18:00:07.520Z,1.40
2023-05-06T18:02:34.125Z,1.75
2023-05-06T18:05:00.572Z,1.55
2023-05-06T18:07:26.970Z,1.20
2023-05-06T18:09:53.461Z,1.52
2023-05-06T18:12:19.954Z,3.20
2023-05-06T18:14:46.709Z,10.32
2023-05-06T18:17:13.172Z,6.03
2023-05-06T18:19:39.589Z,4.65
2023-05-06T18:22:08.431Z,3.25
2023-05-06T18:24:34.821Z,1.80
2023-05-06T18:27:02.274Z,2.35
2023-05-06T18:29:30.276Z,2.13
2023-05-06T18:31:57.214Z,1.75
2023-05-06T18:34:23.641Z,2.72
2023-05-06T18:36:50.046Z,2.38
2023-05-06T18:39:16.486Z,2.35
2023-05-06T18:41:43.504Z,2.03
2023-05-06T18:44:10.014Z,1.60
2023-05-06T18:46:38.799Z,1.67
2023-05-06T18:49:05.210Z,1.73
2023-05-06T18:51:31.978Z,1.88
2023-05-06T18:53:58.455Z,2.30
2023-05-06T18:56:25.316Z,2.10
2023-05-06T18:58:52.323Z,2.10
2023-05-06T19:01:18.851Z,2.13
2023-05-06T19:03:45.492Z,2.28
2023-05-06T19:06:14.359Z,1.92
2023-05-06T19:08:40.843Z,2.20
2023-05-06T19:11:13.579Z,3.30
2023-05-06T19:13:40.067Z,3.28
2023-05-06T19:16:06.559Z,2.38
2023-05-06T19:18:32.955Z,1.90
2023-05-06T19:21:02.532Z,2.25
2023-05-06T19:23:29.440Z,1.83
2023-05-06T19:25:55.833Z,1.98
2023-05-06T19:28:22.288Z,1.95
2023-05-06T19:30:48.841Z,1.73
2023-05-06T19:33:18.579Z,1.77
2023-05-06T19:35:44.987Z,1.90
2023-05-06T19:38:11.378Z,2.20
2023-05-06T19:40:37.771Z,2.53
2023-05-06T19:43:04.732Z,3.10
2023-05-06T19:45:32.505Z,3.10
2023-05-06T19:48:01.552Z,3.67
2023-05-06T19:50:28.387Z,3.80
2023-05-06T19:52:55.171Z,4.68
2023-05-06T19:55:22.102Z,5.68
2023-05-06T19:57:51.945Z,4.05
2023-05-06T20:00:20.050Z,3.00
2023-05-06T20:02:46.589Z,3.80
2023-05-06T20:05:13.678Z,3.95
2023-05-06T20:07:41.312Z,3.70
2023-05-06T20:10:13.490Z,3.53
2023-05-06T20:12:40.901Z,3.20
2023-05-06T20:15:08.229Z,3.58
2023-05-06T20:17:34.956Z,3.30
2023-05-06T20:20:09.368Z,3.30
2023-05-06T20:22:36.718Z,3.20
2023-05-06T20:25:10.331Z,2.45
2023-05-06T20:27:37.150Z,2.72
2023-05-06T20:30:04.176Z,2.45
2023-05-06T20:32:30.992Z,2.70
2023-05-06T20:34:58.209Z,2.67
2023-05-06T20:37:25.473Z,5.38
2023-05-06T20:39:51.923Z,11.57
2023-05-06T20:42:18.282Z,7.85
2023-05-06T20:44:44.731Z,6.45
2023-05-06T20:47:12.545Z,3.45
2023-05-06T20:49:41.616Z,3.58
2023-05-06T20:52:11.079Z,3.78
2023-05-06T20:54:37.465Z,6.88
2023-05-06T20:57:03.922Z,6.10
2023-05-06T20:59:30.399Z,7.15
2023-05-06T21:01:59.534Z,7.38
2023-05-06T21:04:26.032Z,8.15
2023-05-06T21:06:54.818Z,9.32
2023-05-06T21:09:23.717Z,9.70
2023-05-06T21:11:50.865Z,9.77
2023-05-06T21:14:17.253Z,7.85
2023-05-06T21:16:43.663Z,7.50
2023-05-06T21:19:12.479Z,9.07
2023-05-06T21:21:38.907Z,8.95
2023-05-06T21:24:05.478Z,7.65
2023-05-06T21:26:34.908Z,5.85
2023-05-06T21:29:01.335Z,5.15
2023-05-06T21:31:27.923Z,4.93
2023-05-06T21:33:55.524Z,3.95
2023-05-06T21:36:21.958Z,3.92
2023-05-06T21:38:48.724Z,3.80
2023-05-06T21:41:15.068Z,6.35
2023-05-06T21:43:42.142Z,5.30
2023-05-06T21:46:08.580Z,3.67
2023-05-06T21:48:35.079Z,2.50
2023-05-06T21:51:04.633Z,2.60
2023-05-06T21:53:31.196Z,2.78
2023-05-06T21:55:57.642Z,3.03
2023-05-06T21:58:26.484Z,3.35
2023-05-06T22:00:52.930Z,3.28
2023-05-06T22:03:19.535Z,4.00
2023-05-06T22:05:48.215Z,3.90
2023-05-06T22:08:14.685Z,3.85
2023-05-06T22:10:41.054Z,3.70
2023-05-06T22:13:07.755Z,3.80
2023-05-06T22:15:34.136Z,3.70
2023-05-06T22:18:00.597Z,3.92
2023-05-06T22:20:27.013Z,4.45
2023-05-06T22:22:55.753Z,3.80
2023-05-06T22:25:22.213Z,3.58
2023-05-06T22:27:48.607Z,3.40
2023-05-06T22:30:16.200Z,3.10
2023-05-06T22:32:42.642Z,3.25
2023-05-06T22:35:09.564Z,3.10
2023-05-06T22:37:36.147Z,2.65
2023-05-06T22:40:02.569Z,2.88
2023-05-06T22:42:28.968Z,2.65
2023-05-06T22:44:55.327Z,2.58
2023-05-06T22:47:21.803Z,2.65
2023-05-06T22:49:48.134Z,2.70
2023-05-06T22:52:14.825Z,2.65
2023-05-06T22:54:41.220Z,2.70
2023-05-06T22:57:07.677Z,2.78
2023-05-06T22:59:34.100Z,2.60
2023-05-06T23:02:00.762Z,2.85
2023-05-06T23:04:27.280Z,3.00
2023-05-06T23:06:57.398Z,2.80
2023-05-06T23:09:23.971Z,2.80
2023-05-06T23:11:50.432Z,2.63
2023-05-06T23:14:17.406Z,2.70
2023-05-06T23:16:43.981Z,2.90
2023-05-06T23:19:10.481Z,2.80
2023-05-06T23:21:36.977Z,2.33
2023-05-06T23:24:03.523Z,2.58
2023-05-06T23:26:30.004Z,2.42
2023-05-06T23:28:56.513Z,2.70
2023-05-06T23:31:23.002Z,2.67
2023-05-06T23:33:49.523Z,9.32
2023-05-06T23:36:16.204Z,16.85
2023-05-06T23:38:42.643Z,3.85
2023-05-06T23:41:09.092Z,3.72
2023-05-06T23:43:38.062Z,3.10
2023-05-06T23:46:04.629Z,2.80
2023-05-06T23:48:31.177Z,2.60
2023-05-06T23:50:57.678Z,3.15
2023-05-06T23:53:24.103Z,2.90
2023-05-06T23:55:50.777Z,2.65
2023-05-06T23:58:19.543Z,2.47
